Terminal Aerodrome Forecast
Issued by NWS

Home | Current Version | Previous Version | Text Only | Print | Product List | Glossary On
Versions: 1 2 3 4 5 6 7 8 9 10 11 12 13 14 15 16 17 18 19 20 21 22 23 24 25 26 27
000
FTUS41 KBUF 260500
TAFJHW
TAF
KJHW 260540Z 2606/2706 26008KT P6SM SCT025 BKN040
     FM260900 30010KT P6SM SCT040 BKN250
     FM261200 29015G23KT P6SM SCT025 BKN035
     FM261600 29018G25KT P6SM SCT040 BKN100
     FM270000 29008KT P6SM BKN110
     FM270500 27004KT P6SM SCT200
      AMD LTD TO CLD VIS AND WIND=

USA.gov is the U.S. government's official web portal to all federal, state and local government web resources and services.